RYR2GA LEAL-LEIB
Flight info
| Callsign | RYR2GA |
|---|---|
| Flight time | 0h 23m |
| Altitude | 16000 |
| Route | MITOS N851 RUXET |
| Aircraft | B738/M-SDE2E3FGHIRWXY/LB1 |
Departure
| Time | 2026-05-07 07:51 |
|---|---|
| Airport | Alicante-Elche Miguel Hernández Airport (LEAL) |
Arrival
| Time | 2026-05-07 08:14 |
|---|---|
| Airport | Ibiza Airport (LEIB) |
| Time | Latitude | Longitude | Altitude | Speed | Heading |
|---|---|---|---|---|---|
| 2026-05-07 07:18 | 38.28734 | -0.55006 | 88 ft | 0 kts | 286° |
| 2026-05-07 07:40 | 38.28734 | -0.55005 | 86 ft | 2 kts | 286° |
| 2026-05-07 07:41 | 38.28728 | -0.54973 | 90 ft | 4 kts | 274° |
| 2026-05-07 07:41 | 38.28730 | -0.54940 | 89 ft | 4 kts | 248° |
| 2026-05-07 07:41 | 38.28744 | -0.54918 | 90 ft | 3 kts | 194° |
| 2026-05-07 07:41 | 38.28752 | -0.54916 | 88 ft | 0 kts | 189° |
| 2026-05-07 07:44 | 38.28742 | -0.54918 | 87 ft | 4 kts | 189° |
| 2026-05-07 07:44 | 38.28697 | -0.54928 | 86 ft | 9 kts | 189° |
| 2026-05-07 07:44 | 38.28613 | -0.54948 | 89 ft | 15 kts | 191° |
| 2026-05-07 07:45 | 38.28516 | -0.54969 | 86 ft | 15 kts | 190° |
| 2026-05-07 07:45 | 38.28440 | -0.54990 | 87 ft | 10 kts | 208° |
| 2026-05-07 07:45 | 38.28421 | -0.55072 | 89 ft | 10 kts | 263° |
| 2026-05-07 07:45 | 38.28389 | -0.55156 | 88 ft | 12 kts | 234° |
| 2026-05-07 07:46 | 38.28331 | -0.55265 | 89 ft | 17 kts | 246° |
| 2026-05-07 07:46 | 38.28339 | -0.55412 | 95 ft | 18 kts | 280° |
| 2026-05-07 07:46 | 38.28360 | -0.55568 | 96 ft | 18 kts | 280° |
| 2026-05-07 07:46 | 38.28382 | -0.55728 | 101 ft | 19 kts | 279° |
| 2026-05-07 07:47 | 38.28407 | -0.55899 | 104 ft | 20 kts | 280° |
| 2026-05-07 07:47 | 38.28432 | -0.56081 | 107 ft | 22 kts | 279° |
| 2026-05-07 07:47 | 38.28460 | -0.56281 | 109 ft | 24 kts | 279° |
| 2026-05-07 07:47 | 38.28489 | -0.56481 | 115 ft | 23 kts | 280° |
| 2026-05-07 07:48 | 38.28509 | -0.56640 | 120 ft | 18 kts | 279° |
| 2026-05-07 07:48 | 38.28532 | -0.56800 | 124 ft | 18 kts | 280° |
| 2026-05-07 07:48 | 38.28554 | -0.56954 | 134 ft | 17 kts | 280° |
| 2026-05-07 07:48 | 38.28575 | -0.57103 | 140 ft | 17 kts | 280° |
| 2026-05-07 07:49 | 38.28596 | -0.57247 | 146 ft | 16 kts | 280° |
| 2026-05-07 07:49 | 38.28614 | -0.57385 | 150 ft | 16 kts | 280° |
| 2026-05-07 07:49 | 38.28592 | -0.57494 | 154 ft | 13 kts | 208° |
| 2026-05-07 07:49 | 38.28504 | -0.57519 | 156 ft | 13 kts | 185° |
| 2026-05-07 07:50 | 38.28445 | -0.57451 | 154 ft | 13 kts | 100° |
| 2026-05-07 07:50 | 38.28421 | -0.57274 | 146 ft | 43 kts | 100° |
| 2026-05-07 07:50 | 38.28320 | -0.56554 | 117 ft | 120 kts | 100° |
| 2026-05-07 07:50 | 38.28142 | -0.55268 | 288 ft | 162 kts | 99° |
| 2026-05-07 07:51 | 38.27917 | -0.53824 | 1025 ft | 171 kts | 99° |
| 2026-05-07 07:51 | 38.27682 | -0.52316 | 1774 ft | 182 kts | 99° |
| 2026-05-07 07:51 | 38.27427 | -0.50608 | 2064 ft | 209 kts | 97° |
| 2026-05-07 07:51 | 38.27581 | -0.48699 | 2358 ft | 226 kts | 72° |
| 2026-05-07 07:52 | 38.28312 | -0.46828 | 2658 ft | 246 kts | 58° |
| 2026-05-07 07:52 | 38.29275 | -0.44970 | 3335 ft | 255 kts | 57° |
| 2026-05-07 07:52 | 38.30267 | -0.43104 | 4267 ft | 255 kts | 57° |
| 2026-05-07 07:52 | 38.31270 | -0.41223 | 5096 ft | 259 kts | 57° |
| 2026-05-07 07:53 | 38.32294 | -0.39300 | 5882 ft | 265 kts | 57° |
| 2026-05-07 07:53 | 38.33227 | -0.37259 | 6639 ft | 269 kts | 67° |
| 2026-05-07 07:53 | 38.33934 | -0.35034 | 7401 ft | 273 kts | 70° |
| 2026-05-07 07:53 | 38.34618 | -0.32762 | 8158 ft | 277 kts | 70° |
| 2026-05-07 07:54 | 38.35085 | -0.31238 | 8664 ft | 280 kts | 70° |
| 2026-05-07 07:54 | 38.35813 | -0.28907 | 9399 ft | 286 kts | 70° |
| 2026-05-07 07:54 | 38.36573 | -0.26532 | 10093 ft | 292 kts | 69° |
| 2026-05-07 07:54 | 38.37387 | -0.24067 | 10389 ft | 314 kts | 68° |
| 2026-05-07 07:55 | 38.38268 | -0.21420 | 10662 ft | 333 kts | 68° |
| 2026-05-07 07:55 | 38.39184 | -0.18672 | 11278 ft | 340 kts | 68° |
| 2026-05-07 07:55 | 38.40107 | -0.15899 | 12144 ft | 338 kts | 68° |
| 2026-05-07 07:55 | 38.41019 | -0.13152 | 13151 ft | 334 kts | 69° |
| 2026-05-07 07:56 | 38.41920 | -0.10433 | 14111 ft | 333 kts | 69° |
| 2026-05-07 07:56 | 38.42834 | -0.07666 | 14560 ft | 342 kts | 68° |
| 2026-05-07 07:56 | 38.43760 | -0.04861 | 15050 ft | 343 kts | 68° |
| 2026-05-07 07:56 | 38.44688 | -0.02047 | 15325 ft | 343 kts | 68° |
| 2026-05-07 07:57 | 38.45604 | 0.00752 | 15572 ft | 342 kts | 69° |
| 2026-05-07 07:57 | 38.46512 | 0.03568 | 15823 ft | 343 kts | 69° |
| 2026-05-07 07:57 | 38.47409 | 0.06360 | 15950 ft | 346 kts | 69° |
| 2026-05-07 07:57 | 38.48312 | 0.09173 | 15931 ft | 337 kts | 69° |
| 2026-05-07 07:58 | 38.49189 | 0.11904 | 15929 ft | 327 kts | 69° |
| 2026-05-07 07:58 | 38.50042 | 0.14563 | 15938 ft | 322 kts | 69° |
| 2026-05-07 07:58 | 38.50892 | 0.17214 | 15859 ft | 324 kts | 69° |
| 2026-05-07 07:58 | 38.51745 | 0.19881 | 15648 ft | 323 kts | 69° |
| 2026-05-07 07:59 | 38.52596 | 0.22540 | 15373 ft | 324 kts | 69° |
| 2026-05-07 07:59 | 38.53445 | 0.25195 | 15065 ft | 322 kts | 69° |
| 2026-05-07 07:59 | 38.54289 | 0.27836 | 14757 ft | 320 kts | 69° |
| 2026-05-07 07:59 | 38.55127 | 0.30460 | 14444 ft | 318 kts | 69° |
| 2026-05-07 08:00 | 38.55958 | 0.33066 | 14137 ft | 316 kts | 69° |
| 2026-05-07 08:00 | 38.56784 | 0.35659 | 13823 ft | 314 kts | 69° |
| 2026-05-07 08:00 | 38.57605 | 0.38238 | 13482 ft | 312 kts | 69° |
| 2026-05-07 08:00 | 38.58420 | 0.40799 | 13143 ft | 310 kts | 69° |
| 2026-05-07 08:01 | 38.59229 | 0.43346 | 12811 ft | 308 kts | 69° |
| 2026-05-07 08:01 | 38.60031 | 0.45871 | 12486 ft | 306 kts | 69° |
| 2026-05-07 08:01 | 38.60828 | 0.48381 | 12163 ft | 303 kts | 69° |
| 2026-05-07 08:01 | 38.61621 | 0.50875 | 11849 ft | 301 kts | 69° |
| 2026-05-07 08:02 | 38.62408 | 0.53347 | 11538 ft | 300 kts | 69° |
| 2026-05-07 08:02 | 38.63191 | 0.55807 | 11225 ft | 298 kts | 69° |
| 2026-05-07 08:02 | 38.63970 | 0.58257 | 10919 ft | 296 kts | 69° |
| 2026-05-07 08:02 | 38.64745 | 0.60696 | 10607 ft | 295 kts | 69° |
| 2026-05-07 08:03 | 38.65515 | 0.63123 | 10305 ft | 294 kts | 69° |
| 2026-05-07 08:03 | 38.66270 | 0.65505 | 10071 ft | 290 kts | 69° |
| 2026-05-07 08:03 | 38.66967 | 0.67890 | 9879 ft | 284 kts | 77° |
| 2026-05-07 08:03 | 38.67288 | 0.70383 | 9526 ft | 283 kts | 85° |
| 2026-05-07 08:04 | 38.67466 | 0.72896 | 9182 ft | 283 kts | 86° |
| 2026-05-07 08:04 | 38.67628 | 0.75405 | 8845 ft | 282 kts | 86° |
| 2026-05-07 08:04 | 38.67800 | 0.77903 | 8517 ft | 282 kts | 85° |
| 2026-05-07 08:04 | 38.67984 | 0.80399 | 8186 ft | 281 kts | 85° |
| 2026-05-07 08:05 | 38.68177 | 0.82880 | 7866 ft | 280 kts | 85° |
| 2026-05-07 08:05 | 38.68373 | 0.85311 | 7569 ft | 270 kts | 84° |
| 2026-05-07 08:05 | 38.68564 | 0.87669 | 7257 ft | 262 kts | 84° |
| 2026-05-07 08:05 | 38.68750 | 0.89959 | 6958 ft | 255 kts | 84° |
| 2026-05-07 08:06 | 38.68932 | 0.92192 | 6670 ft | 249 kts | 84° |
| 2026-05-07 08:06 | 38.69268 | 0.94133 | 6387 ft | 244 kts | 65° |
| 2026-05-07 08:06 | 38.70080 | 0.95998 | 6129 ft | 236 kts | 62° |
| 2026-05-07 08:06 | 38.70876 | 0.97798 | 5865 ft | 229 kts | 62° |
| 2026-05-07 08:07 | 38.71647 | 0.99556 | 5591 ft | 223 kts | 62° |
| 2026-05-07 08:07 | 38.72385 | 1.01275 | 5342 ft | 217 kts | 63° |
| 2026-05-07 08:07 | 38.73083 | 1.02967 | 5082 ft | 213 kts | 64° |
| 2026-05-07 08:07 | 38.73772 | 1.04647 | 4872 ft | 214 kts | 63° |
| 2026-05-07 08:08 | 38.74466 | 1.06340 | 4631 ft | 215 kts | 63° |
| 2026-05-07 08:08 | 38.75160 | 1.08031 | 4383 ft | 214 kts | 63° |
| 2026-05-07 08:08 | 38.75848 | 1.09706 | 4134 ft | 213 kts | 63° |
| 2026-05-07 08:08 | 38.76540 | 1.11393 | 3902 ft | 214 kts | 63° |
| 2026-05-07 08:09 | 38.77247 | 1.13060 | 3670 ft | 212 kts | 61° |
| 2026-05-07 08:09 | 38.77957 | 1.14675 | 3544 ft | 201 kts | 62° |
| 2026-05-07 08:09 | 38.78625 | 1.16263 | 3369 ft | 205 kts | 63° |
| 2026-05-07 08:09 | 38.79284 | 1.17861 | 3118 ft | 200 kts | 63° |
| 2026-05-07 08:10 | 38.79920 | 1.19410 | 2860 ft | 193 kts | 63° |
| 2026-05-07 08:10 | 38.80531 | 1.20900 | 2604 ft | 189 kts | 63° |
| 2026-05-07 08:10 | 38.81136 | 1.22373 | 2351 ft | 184 kts | 63° |
| 2026-05-07 08:10 | 38.81725 | 1.23809 | 2110 ft | 180 kts | 63° |
| 2026-05-07 08:11 | 38.82305 | 1.25219 | 1866 ft | 177 kts | 63° |
| 2026-05-07 08:11 | 38.82868 | 1.26587 | 1642 ft | 168 kts | 63° |
| 2026-05-07 08:11 | 38.83390 | 1.27858 | 1455 ft | 152 kts | 63° |
| 2026-05-07 08:11 | 38.83858 | 1.28995 | 1254 ft | 135 kts | 62° |
| 2026-05-07 08:12 | 38.84295 | 1.30060 | 1050 ft | 132 kts | 62° |
| 2026-05-07 08:12 | 38.84724 | 1.31099 | 874 ft | 133 kts | 63° |
| 2026-05-07 08:12 | 38.85159 | 1.32158 | 695 ft | 135 kts | 62° |
| 2026-05-07 08:12 | 38.85605 | 1.33239 | 525 ft | 137 kts | 64° |
| 2026-05-07 08:13 | 38.86045 | 1.34311 | 294 ft | 135 kts | 62° |
| 2026-05-07 08:13 | 38.86478 | 1.35358 | 118 ft | 130 kts | 62° |
| 2026-05-07 08:13 | 38.86896 | 1.36372 | 5 ft | 124 kts | 62° |
| 2026-05-07 08:13 | 38.87233 | 1.37189 | 8 ft | 83 kts | 62° |
| 2026-05-07 08:14 | 38.87423 | 1.37646 | 3 ft | 28 kts | 62° |
| 2026-05-07 08:14 | 38.87540 | 1.37821 | 5 ft | 22 kts | 36° |
| 2026-05-07 08:14 | 38.87634 | 1.37899 | 7 ft | 14 kts | 32° |
| 2026-05-07 08:14 | 38.87695 | 1.37855 | 7 ft | 13 kts | 258° |
| 2026-05-07 08:15 | 38.87653 | 1.37751 | 9 ft | 13 kts | 241° |
| 2026-05-07 08:15 | 38.87611 | 1.37652 | 7 ft | 13 kts | 241° |
| 2026-05-07 08:15 | 38.87588 | 1.37568 | 7 ft | 9 kts | 289° |
| 2026-05-07 08:15 | 38.87635 | 1.37522 | 7 ft | 9 kts | 332° |
| 2026-05-07 08:16 | 38.87687 | 1.37479 | 7 ft | 10 kts | 310° |
| 2026-05-07 08:16 | 38.87680 | 1.37387 | 9 ft | 13 kts | 241° |
| 2026-05-07 08:16 | 38.87631 | 1.37270 | 7 ft | 17 kts | 243° |
| 2026-05-07 08:16 | 38.87591 | 1.37172 | 8 ft | 10 kts | 242° |
| 2026-05-07 08:17 | 38.87568 | 1.37117 | 7 ft | 5 kts | 242° |
| 2026-05-07 08:17 | 38.87576 | 1.37090 | 7 ft | 4 kts | 326° |
| 2026-05-07 08:17 | 38.87599 | 1.37073 | 7 ft | 4 kts | 332° |
| 2026-05-07 08:17 | 38.87608 | 1.37067 | 7 ft | 1 kts | 332° |
| 2026-05-07 08:18 | 38.87615 | 1.37062 | 7 ft | 1 kts | 332° |
| 2026-05-07 08:18 | 38.87616 | 1.37062 | 7 ft | 0 kts | 332° |